sensor_id;sensor_type;location;lat;lon;timestamp;P1;durP1;ratioP1;P2;durP2;ratioP2
18200;SDS011;9226;47.858;9.594;2023-03-23T00:02:26;12.73;;;4.53;;
18200;SDS011;9226;47.858;9.594;2023-03-23T00:04:53;7.77;;;4.43;;
18200;SDS011;9226;47.858;9.594;2023-03-23T00:07:20;10.50;;;4.47;;
18200;SDS011;9226;47.858;9.594;2023-03-23T00:09:52;10.00;;;4.67;;
18200;SDS011;9226;47.858;9.594;2023-03-23T00:12:24;10.50;;;4.87;;
18200;SDS011;9226;47.858;9.594;2023-03-23T00:15:05;10.13;;;4.20;;
18200;SDS011;9226;47.858;9.594;2023-03-23T00:17:33;9.03;;;4.60;;
18200;SDS011;9226;47.858;9.594;2023-03-23T00:19:59;7.87;;;4.10;;
18200;SDS011;9226;47.858;9.594;2023-03-23T00:22:26;9.23;;;4.60;;
18200;SDS011;9226;47.858;9.594;2023-03-23T00:24:52;9.00;;;5.17;;
18200;SDS011;9226;47.858;9.594;2023-03-23T00:27:18;10.07;;;4.53;;
18200;SDS011;9226;47.858;9.594;2023-03-23T00:29:46;9.33;;;5.03;;
18200;SDS011;9226;47.858;9.594;2023-03-23T00:32:12;7.90;;;4.20;;
18200;SDS011;9226;47.858;9.594;2023-03-23T00:34:42;7.63;;;4.40;;
18200;SDS011;9226;47.858;9.594;2023-03-23T00:37:09;10.53;;;5.53;;
18200;SDS011;9226;47.858;9.594;2023-03-23T00:39:35;9.73;;;4.60;;
18200;SDS011;9226;47.858;9.594;2023-03-23T00:42:03;9.67;;;4.43;;
18200;SDS011;9226;47.858;9.594;2023-03-23T00:44:29;8.67;;;4.43;;
18200;SDS011;9226;47.858;9.594;2023-03-23T00:46:59;8.90;;;4.80;;
18200;SDS011;9226;47.858;9.594;2023-03-23T00:49:25;15.33;;;5.43;;
18200;SDS011;9226;47.858;9.594;2023-03-23T00:51:52;10.60;;;5.33;;
18200;SDS011;9226;47.858;9.594;2023-03-23T00:54:19;9.33;;;4.97;;
18200;SDS011;9226;47.858;9.594;2023-03-23T00:56:45;7.67;;;4.27;;
18200;SDS011;9226;47.858;9.594;2023-03-23T00:59:11;8.37;;;5.00;;
18200;SDS011;9226;47.858;9.594;2023-03-23T01:01:37;12.43;;;5.17;;
18200;SDS011;9226;47.858;9.594;2023-03-23T01:04:03;8.87;;;4.47;;
18200;SDS011;9226;47.858;9.594;2023-03-23T01:06:29;8.90;;;4.80;;
18200;SDS011;9226;47.858;9.594;2023-03-23T01:08:59;9.60;;;4.53;;
18200;SDS011;9226;47.858;9.594;2023-03-23T01:11:25;9.57;;;4.27;;
18200;SDS011;9226;47.858;9.594;2023-03-23T01:13:51;8.63;;;4.17;;
18200;SDS011;9226;47.858;9.594;2023-03-23T01:16:17;10.63;;;4.53;;
18200;SDS011;9226;47.858;9.594;2023-03-23T01:18:43;9.43;;;4.33;;
18200;SDS011;9226;47.858;9.594;2023-03-23T01:21:12;12.77;;;4.70;;
18200;SDS011;9226;47.858;9.594;2023-03-23T01:23:40;8.13;;;4.33;;
18200;SDS011;9226;47.858;9.594;2023-03-23T01:26:07;9.33;;;4.40;;
18200;SDS011;9226;47.858;9.594;2023-03-23T01:28:35;9.00;;;4.67;;
18200;SDS011;9226;47.858;9.594;2023-03-23T01:31:02;13.63;;;5.37;;
18200;SDS011;9226;47.858;9.594;2023-03-23T01:33:29;8.93;;;4.43;;
18200;SDS011;9226;47.858;9.594;2023-03-23T01:35:55;8.57;;;4.40;;
18200;SDS011;9226;47.858;9.594;2023-03-23T01:38:21;7.57;;;4.60;;
18200;SDS011;9226;47.858;9.594;2023-03-23T01:40:46;9.87;;;5.00;;
18200;SDS011;9226;47.858;9.594;2023-03-23T01:43:13;8.40;;;4.63;;
18200;SDS011;9226;47.858;9.594;2023-03-23T01:45:40;8.63;;;4.63;;
18200;SDS011;9226;47.858;9.594;2023-03-23T01:50:45;11.40;;;4.90;;
18200;SDS011;9226;47.858;9.594;2023-03-23T01:53:12;10.43;;;4.90;;
18200;SDS011;9226;47.858;9.594;2023-03-23T01:55:38;9.53;;;5.43;;
18200;SDS011;9226;47.858;9.594;2023-03-23T01:58:06;7.20;;;4.53;;
18200;SDS011;9226;47.858;9.594;2023-03-23T02:00:33;7.73;;;4.70;;
18200;SDS011;9226;47.858;9.594;2023-03-23T02:03:00;10.27;;;4.83;;
18200;SDS011;9226;47.858;9.594;2023-03-23T02:05:28;11.03;;;4.30;;
18200;SDS011;9226;47.858;9.594;2023-03-23T02:07:58;9.43;;;4.60;;
18200;SDS011;9226;47.858;9.594;2023-03-23T02:10:28;8.37;;;4.70;;
18200;SDS011;9226;47.858;9.594;2023-03-23T02:12:54;8.63;;;4.80;;
18200;SDS011;9226;47.858;9.594;2023-03-23T02:15:20;8.27;;;4.77;;
18200;SDS011;9226;47.858;9.594;2023-03-23T02:17:53;7.70;;;4.33;;
18200;SDS011;9226;47.858;9.594;2023-03-23T02:21:02;10.57;;;4.70;;
18200;SDS011;9226;47.858;9.594;2023-03-23T02:34:42;11.53;;;4.90;;
18200;SDS011;9226;47.858;9.594;2023-03-23T02:37:14;8.17;;;4.60;;
18200;SDS011;9226;47.858;9.594;2023-03-23T02:39:48;8.77;;;5.10;;
18200;SDS011;9226;47.858;9.594;2023-03-23T02:42:20;10.03;;;4.93;;
18200;SDS011;9226;47.858;9.594;2023-03-23T02:44:51;9.37;;;4.67;;
18200;SDS011;9226;47.858;9.594;2023-03-23T02:47:20;7.77;;;4.47;;
18200;SDS011;9226;47.858;9.594;2023-03-23T02:49:50;7.40;;;4.73;;
18200;SDS011;9226;47.858;9.594;2023-03-23T02:52:20;10.83;;;5.03;;
18200;SDS011;9226;47.858;9.594;2023-03-23T02:54:49;8.80;;;4.73;;
18200;SDS011;9226;47.858;9.594;2023-03-23T02:57:17;9.70;;;4.83;;
18200;SDS011;9226;47.858;9.594;2023-03-23T02:59:43;10.73;;;4.40;;
18200;SDS011;9226;47.858;9.594;2023-03-23T03:02:14;9.40;;;4.23;;
18200;SDS011;9226;47.858;9.594;2023-03-23T03:04:50;11.13;;;4.60;;
18200;SDS011;9226;47.858;9.594;2023-03-23T03:07:30;7.40;;;4.17;;
18200;SDS011;9226;47.858;9.594;2023-03-23T03:10:07;9.73;;;4.47;;
18200;SDS011;9226;47.858;9.594;2023-03-23T03:12:46;7.50;;;4.10;;
18200;SDS011;9226;47.858;9.594;2023-03-23T03:15:52;8.17;;;4.70;;
18200;SDS011;9226;47.858;9.594;2023-03-23T03:20:56;7.67;;;4.13;;
18200;SDS011;9226;47.858;9.594;2023-03-23T03:23:26;8.40;;;4.10;;
18200;SDS011;9226;47.858;9.594;2023-03-23T03:25:54;6.30;;;3.93;;
18200;SDS011;9226;47.858;9.594;2023-03-23T03:28:22;8.03;;;4.23;;
18200;SDS011;9226;47.858;9.594;2023-03-23T03:30:55;8.13;;;4.07;;
18200;SDS011;9226;47.858;9.594;2023-03-23T03:33:25;9.07;;;4.10;;
18200;SDS011;9226;47.858;9.594;2023-03-23T03:35:55;7.43;;;4.13;;
18200;SDS011;9226;47.858;9.594;2023-03-23T03:38:23;8.03;;;4.13;;
18200;SDS011;9226;47.858;9.594;2023-03-23T03:40:49;6.67;;;4.07;;
18200;SDS011;9226;47.858;9.594;2023-03-23T03:43:15;7.20;;;3.87;;
18200;SDS011;9226;47.858;9.594;2023-03-23T03:45:40;14.60;;;4.50;;
18200;SDS011;9226;47.858;9.594;2023-03-23T03:48:06;10.87;;;4.43;;
18200;SDS011;9226;47.858;9.594;2023-03-23T03:50:32;7.30;;;4.23;;
18200;SDS011;9226;47.858;9.594;2023-03-23T03:52:58;9.73;;;5.03;;
18200;SDS011;9226;47.858;9.594;2023-03-23T03:55:23;10.27;;;5.43;;
18200;SDS011;9226;47.858;9.594;2023-03-23T03:57:49;12.57;;;6.13;;
18200;SDS011;9226;47.858;9.594;2023-03-23T04:00:15;8.43;;;4.73;;
18200;SDS011;9226;47.858;9.594;2023-03-23T04:02:41;11.60;;;5.70;;
18200;SDS011;9226;47.858;9.594;2023-03-23T04:05:08;8.30;;;5.03;;
18200;SDS011;9226;47.858;9.594;2023-03-23T04:07:35;9.03;;;5.20;;
18200;SDS011;9226;47.858;9.594;2023-03-23T04:10:03;8.53;;;4.77;;
18200;SDS011;9226;47.858;9.594;2023-03-23T04:12:30;10.30;;;4.93;;
18200;SDS011;9226;47.858;9.594;2023-03-23T04:14:56;9.40;;;4.77;;
18200;SDS011;9226;47.858;9.594;2023-03-23T04:17:22;12.20;;;5.10;;
18200;SDS011;9226;47.858;9.594;2023-03-23T04:19:51;8.03;;;5.03;;
18200;SDS011;9226;47.858;9.594;2023-03-23T04:22:17;8.20;;;4.93;;
18200;SDS011;9226;47.858;9.594;2023-03-23T04:24:42;8.53;;;4.60;;
18200;SDS011;9226;47.858;9.594;2023-03-23T04:27:07;9.10;;;4.37;;
18200;SDS011;9226;47.858;9.594;2023-03-23T04:29:33;9.07;;;4.80;;
18200;SDS011;9226;47.858;9.594;2023-03-23T04:31:59;6.90;;;4.00;;
18200;SDS011;9226;47.858;9.594;2023-03-23T04:34:26;9.70;;;4.80;;
18200;SDS011;9226;47.858;9.594;2023-03-23T04:36:51;9.90;;;4.87;;
18200;SDS011;9226;47.858;9.594;2023-03-23T04:39:18;10.10;;;5.00;;
18200;SDS011;9226;47.858;9.594;2023-03-23T04:41:44;11.20;;;4.53;;
18200;SDS011;9226;47.858;9.594;2023-03-23T04:44:11;8.40;;;4.30;;
18200;SDS011;9226;47.858;9.594;2023-03-23T04:46:42;6.10;;;4.03;;
18200;SDS011;9226;47.858;9.594;2023-03-23T04:49:10;6.33;;;3.90;;
18200;SDS011;9226;47.858;9.594;2023-03-23T04:51:36;7.13;;;3.73;;
18200;SDS011;9226;47.858;9.594;2023-03-23T04:54:04;6.80;;;3.80;;
18200;SDS011;9226;47.858;9.594;2023-03-23T04:56:29;6.93;;;4.10;;
18200;SDS011;9226;47.858;9.594;2023-03-23T04:58:54;7.90;;;4.10;;
18200;SDS011;9226;47.858;9.594;2023-03-23T05:01:20;8.27;;;3.63;;
18200;SDS011;9226;47.858;9.594;2023-03-23T05:03:46;9.93;;;3.87;;
18200;SDS011;9226;47.858;9.594;2023-03-23T05:06:11;6.93;;;3.73;;
18200;SDS011;9226;47.858;9.594;2023-03-23T05:08:36;6.37;;;3.43;;
18200;SDS011;9226;47.858;9.594;2023-03-23T05:11:04;6.80;;;3.40;;
18200;SDS011;9226;47.858;9.594;2023-03-23T05:13:31;7.93;;;2.97;;
18200;SDS011;9226;47.858;9.594;2023-03-23T05:15:56;6.83;;;3.23;;
18200;SDS011;9226;47.858;9.594;2023-03-23T05:18:22;8.27;;;3.97;;
18200;SDS011;9226;47.858;9.594;2023-03-23T05:20:48;6.70;;;3.30;;
18200;SDS011;9226;47.858;9.594;2023-03-23T05:23:14;9.37;;;3.73;;
18200;SDS011;9226;47.858;9.594;2023-03-23T05:25:40;7.10;;;3.47;;
18200;SDS011;9226;47.858;9.594;2023-03-23T05:28:09;7.57;;;3.60;;
18200;SDS011;9226;47.858;9.594;2023-03-23T05:30:36;8.17;;;3.33;;
18200;SDS011;9226;47.858;9.594;2023-03-23T05:33:03;5.63;;;3.00;;
18200;SDS011;9226;47.858;9.594;2023-03-23T05:35:29;8.03;;;3.23;;
18200;SDS011;9226;47.858;9.594;2023-03-23T05:37:54;4.77;;;3.23;;
18200;SDS011;9226;47.858;9.594;2023-03-23T05:40:20;7.57;;;3.30;;
18200;SDS011;9226;47.858;9.594;2023-03-23T05:42:47;5.13;;;2.93;;
18200;SDS011;9226;47.858;9.594;2023-03-23T05:45:13;9.53;;;3.10;;
18200;SDS011;9226;47.858;9.594;2023-03-23T05:47:39;5.90;;;3.37;;
18200;SDS011;9226;47.858;9.594;2023-03-23T05:50:06;5.20;;;3.10;;
18200;SDS011;9226;47.858;9.594;2023-03-23T05:52:34;5.97;;;3.23;;
18200;SDS011;9226;47.858;9.594;2023-03-23T05:55:00;7.83;;;3.40;;
18200;SDS011;9226;47.858;9.594;2023-03-23T05:57:26;5.77;;;3.40;;
18200;SDS011;9226;47.858;9.594;2023-03-23T05:59:52;5.67;;;3.00;;
18200;SDS011;9226;47.858;9.594;2023-03-23T06:02:18;5.93;;;3.30;;
18200;SDS011;9226;47.858;9.594;2023-03-23T06:04:43;5.80;;;3.00;;
18200;SDS011;9226;47.858;9.594;2023-03-23T06:07:09;6.03;;;3.50;;
18200;SDS011;9226;47.858;9.594;2023-03-23T06:09:39;7.33;;;3.33;;
18200;SDS011;9226;47.858;9.594;2023-03-23T06:12:05;5.67;;;3.30;;
18200;SDS011;9226;47.858;9.594;2023-03-23T06:14:31;9.33;;;3.60;;
18200;SDS011;9226;47.858;9.594;2023-03-23T06:16:57;6.83;;;3.40;;
18200;SDS011;9226;47.858;9.594;2023-03-23T06:19:22;6.53;;;3.50;;
18200;SDS011;9226;47.858;9.594;2023-03-23T06:21:48;5.80;;;3.83;;
18200;SDS011;9226;47.858;9.594;2023-03-23T06:24:13;6.07;;;3.53;;
18200;SDS011;9226;47.858;9.594;2023-03-23T06:26:39;8.17;;;3.90;;
18200;SDS011;9226;47.858;9.594;2023-03-23T06:29:06;9.27;;;3.87;;
18200;SDS011;9226;47.858;9.594;2023-03-23T06:31:39;4.70;;;3.17;;
18200;SDS011;9226;47.858;9.594;2023-03-23T06:34:07;6.33;;;3.53;;
18200;SDS011;9226;47.858;9.594;2023-03-23T06:36:35;7.87;;;3.67;;
18200;SDS011;9226;47.858;9.594;2023-03-23T06:39:01;5.37;;;3.50;;
18200;SDS011;9226;47.858;9.594;2023-03-23T06:41:29;7.27;;;3.00;;
18200;SDS011;9226;47.858;9.594;2023-03-23T06:43:55;7.77;;;3.30;;
18200;SDS011;9226;47.858;9.594;2023-03-23T06:46:20;5.03;;;3.33;;
18200;SDS011;9226;47.858;9.594;2023-03-23T06:48:46;6.30;;;3.40;;
18200;SDS011;9226;47.858;9.594;2023-03-23T06:51:14;8.60;;;4.10;;
18200;SDS011;9226;47.858;9.594;2023-03-23T06:53:40;9.50;;;5.17;;
18200;SDS011;9226;47.858;9.594;2023-03-23T06:56:05;8.60;;;4.63;;
18200;SDS011;9226;47.858;9.594;2023-03-23T06:58:31;9.93;;;4.27;;
18200;SDS011;9226;47.858;9.594;2023-03-23T07:00:57;10.03;;;4.80;;
18200;SDS011;9226;47.858;9.594;2023-03-23T07:03:23;12.87;;;5.57;;
18200;SDS011;9226;47.858;9.594;2023-03-23T07:05:49;8.07;;;4.10;;
18200;SDS011;9226;47.858;9.594;2023-03-23T07:08:15;7.53;;;4.03;;
18200;SDS011;9226;47.858;9.594;2023-03-23T07:10:40;8.30;;;4.03;;
18200;SDS011;9226;47.858;9.594;2023-03-23T07:13:06;8.10;;;4.13;;
18200;SDS011;9226;47.858;9.594;2023-03-23T07:15:31;11.63;;;4.20;;
18200;SDS011;9226;47.858;9.594;2023-03-23T07:17:57;9.87;;;4.67;;
18200;SDS011;9226;47.858;9.594;2023-03-23T07:20:23;8.27;;;3.93;;
18200;SDS011;9226;47.858;9.594;2023-03-23T07:22:48;8.93;;;4.40;;
18200;SDS011;9226;47.858;9.594;2023-03-23T07:25:15;6.13;;;3.73;;
18200;SDS011;9226;47.858;9.594;2023-03-23T07:27:41;10.30;;;4.57;;
18200;SDS011;9226;47.858;9.594;2023-03-23T07:30:06;9.43;;;4.67;;
18200;SDS011;9226;47.858;9.594;2023-03-23T07:32:32;10.27;;;4.57;;
18200;SDS011;9226;47.858;9.594;2023-03-23T07:34:58;9.40;;;4.10;;
18200;SDS011;9226;47.858;9.594;2023-03-23T07:37:23;8.23;;;4.23;;
18200;SDS011;9226;47.858;9.594;2023-03-23T07:39:49;11.03;;;4.50;;
18200;SDS011;9226;47.858;9.594;2023-03-23T07:42:14;10.90;;;5.07;;
18200;SDS011;9226;47.858;9.594;2023-03-23T07:44:40;7.20;;;4.07;;
18200;SDS011;9226;47.858;9.594;2023-03-23T07:47:05;8.23;;;4.53;;
18200;SDS011;9226;47.858;9.594;2023-03-23T07:49:31;6.53;;;3.70;;
18200;SDS011;9226;47.858;9.594;2023-03-23T07:51:57;6.63;;;3.53;;
18200;SDS011;9226;47.858;9.594;2023-03-23T07:54:23;6.27;;;3.70;;
18200;SDS011;9226;47.858;9.594;2023-03-23T07:56:49;6.30;;;3.70;;
18200;SDS011;9226;47.858;9.594;2023-03-23T07:59:14;6.43;;;3.87;;
18200;SDS011;9226;47.858;9.594;2023-03-23T08:01:40;8.37;;;3.83;;
18200;SDS011;9226;47.858;9.594;2023-03-23T08:04:05;14.90;;;4.30;;
18200;SDS011;9226;47.858;9.594;2023-03-23T08:06:32;5.63;;;3.70;;
18200;SDS011;9226;47.858;9.594;2023-03-23T08:08:59;7.47;;;3.40;;
18200;SDS011;9226;47.858;9.594;2023-03-23T08:11:25;6.87;;;3.40;;
18200;SDS011;9226;47.858;9.594;2023-03-23T08:13:51;10.27;;;4.07;;
18200;SDS011;9226;47.858;9.594;2023-03-23T08:16:17;5.23;;;3.07;;
18200;SDS011;9226;47.858;9.594;2023-03-23T08:18:43;6.27;;;3.50;;
18200;SDS011;9226;47.858;9.594;2023-03-23T08:21:09;6.50;;;2.67;;
18200;SDS011;9226;47.858;9.594;2023-03-23T08:23:35;7.30;;;3.83;;
18200;SDS011;9226;47.858;9.594;2023-03-23T08:26:02;6.93;;;2.60;;
18200;SDS011;9226;47.858;9.594;2023-03-23T08:28:28;4.43;;;1.90;;
18200;SDS011;9226;47.858;9.594;2023-03-23T08:30:54;5.53;;;2.00;;
18200;SDS011;9226;47.858;9.594;2023-03-23T08:33:19;2.73;;;1.70;;
18200;SDS011;9226;47.858;9.594;2023-03-23T08:35:53;3.33;;;2.00;;
18200;SDS011;9226;47.858;9.594;2023-03-23T08:38:19;2.83;;;1.80;;
18200;SDS011;9226;47.858;9.594;2023-03-23T08:40:46;10.33;;;2.43;;
18200;SDS011;9226;47.858;9.594;2023-03-23T08:43:12;6.03;;;3.40;;
18200;SDS011;9226;47.858;9.594;2023-03-23T08:45:37;6.87;;;3.63;;
18200;SDS011;9226;47.858;9.594;2023-03-23T08:48:03;6.27;;;3.37;;
18200;SDS011;9226;47.858;9.594;2023-03-23T08:50:29;8.70;;;4.10;;
18200;SDS011;9226;47.858;9.594;2023-03-23T08:52:55;7.53;;;2.60;;
18200;SDS011;9226;47.858;9.594;2023-03-23T08:55:21;5.97;;;3.93;;
18200;SDS011;9226;47.858;9.594;2023-03-23T08:57:47;8.87;;;3.33;;
18200;SDS011;9226;47.858;9.594;2023-03-23T09:00:14;7.50;;;3.27;;
18200;SDS011;9226;47.858;9.594;2023-03-23T09:02:47;9.47;;;2.17;;
18200;SDS011;9226;47.858;9.594;2023-03-23T09:05:15;4.53;;;1.83;;
18200;SDS011;9226;47.858;9.594;2023-03-23T09:07:43;4.23;;;2.37;;
18200;SDS011;9226;47.858;9.594;2023-03-23T09:10:11;4.67;;;2.80;;
18200;SDS011;9226;47.858;9.594;2023-03-23T09:12:38;4.30;;;1.83;;
18200;SDS011;9226;47.858;9.594;2023-03-23T09:15:06;2.90;;;1.80;;
18200;SDS011;9226;47.858;9.594;2023-03-23T09:17:36;3.13;;;1.70;;
18200;SDS011;9226;47.858;9.594;2023-03-23T09:20:07;3.33;;;1.90;;
18200;SDS011;9226;47.858;9.594;2023-03-23T09:22:38;2.10;;;1.80;;
18200;SDS011;9226;47.858;9.594;2023-03-23T09:25:06;2.03;;;1.60;;
18200;SDS011;9226;47.858;9.594;2023-03-23T09:27:33;4.80;;;1.90;;
18200;SDS011;9226;47.858;9.594;2023-03-23T09:30:01;4.50;;;1.63;;
18200;SDS011;9226;47.858;9.594;2023-03-23T09:32:29;3.13;;;1.80;;
18200;SDS011;9226;47.858;9.594;2023-03-23T09:34:55;2.10;;;1.53;;
18200;SDS011;9226;47.858;9.594;2023-03-23T09:37:20;3.20;;;1.50;;
18200;SDS011;9226;47.858;9.594;2023-03-23T09:39:46;3.50;;;1.80;;
18200;SDS011;9226;47.858;9.594;2023-03-23T09:42:14;4.97;;;2.00;;
18200;SDS011;9226;47.858;9.594;2023-03-23T09:45:11;3.43;;;1.97;;
18200;SDS011;9226;47.858;9.594;2023-03-23T09:50:39;2.17;;;1.63;;
18200;SDS011;9226;47.858;9.594;2023-03-23T09:55:34;2.80;;;1.50;;
18200;SDS011;9226;47.858;9.594;2023-03-23T10:01:26;3.40;;;1.73;;
18200;SDS011;9226;47.858;9.594;2023-03-23T10:03:39;3.10;;;1.60;;
18200;SDS011;9226;47.858;9.594;2023-03-23T10:06:07;2.80;;;1.90;;
18200;SDS011;9226;47.858;9.594;2023-03-23T10:08:35;3.60;;;2.10;;
18200;SDS011;9226;47.858;9.594;2023-03-23T10:11:12;3.23;;;1.83;;
18200;SDS011;9226;47.858;9.594;2023-03-23T10:17:00;5.00;;;2.17;;
18200;SDS011;9226;47.858;9.594;2023-03-23T10:19:43;2.93;;;1.90;;
18200;SDS011;9226;47.858;9.594;2023-03-23T10:22:14;3.67;;;2.10;;
18200;SDS011;9226;47.858;9.594;2023-03-23T10:25:11;4.73;;;2.27;;
18200;SDS011;9226;47.858;9.594;2023-03-23T10:27:38;4.03;;;2.37;;
18200;SDS011;9226;47.858;9.594;2023-03-23T10:33:20;5.30;;;2.70;;
18200;SDS011;9226;47.858;9.594;2023-03-23T10:35:56;13.00;;;2.87;;
18200;SDS011;9226;47.858;9.594;2023-03-23T10:38:29;4.07;;;2.27;;
18200;SDS011;9226;47.858;9.594;2023-03-23T10:41:01;3.27;;;2.23;;
18200;SDS011;9226;47.858;9.594;2023-03-23T10:43:30;3.53;;;2.20;;
18200;SDS011;9226;47.858;9.594;2023-03-23T10:45:57;3.47;;;2.03;;
18200;SDS011;9226;47.858;9.594;2023-03-23T10:48:29;3.20;;;1.90;;
18200;SDS011;9226;47.858;9.594;2023-03-23T10:51:00;4.33;;;1.80;;
18200;SDS011;9226;47.858;9.594;2023-03-23T10:53:35;3.63;;;2.30;;
18200;SDS011;9226;47.858;9.594;2023-03-23T10:56:04;3.70;;;2.20;;
18200;SDS011;9226;47.858;9.594;2023-03-23T10:58:31;3.20;;;1.93;;
18200;SDS011;9226;47.858;9.594;2023-03-23T11:00:59;3.47;;;1.90;;
18200;SDS011;9226;47.858;9.594;2023-03-23T11:03:29;3.97;;;2.00;;
18200;SDS011;9226;47.858;9.594;2023-03-23T11:06:03;3.23;;;1.80;;
18200;SDS011;9226;47.858;9.594;2023-03-23T11:08:32;7.30;;;1.60;;
18200;SDS011;9226;47.858;9.594;2023-03-23T11:11:19;2.67;;;1.90;;
18200;SDS011;9226;47.858;9.594;2023-03-23T11:14:11;3.93;;;2.10;;
18200;SDS011;9226;47.858;9.594;2023-03-23T11:16:42;5.07;;;2.13;;
18200;SDS011;9226;47.858;9.594;2023-03-23T11:19:13;4.13;;;1.90;;
18200;SDS011;9226;47.858;9.594;2023-03-23T11:21:45;7.53;;;1.93;;
18200;SDS011;9226;47.858;9.594;2023-03-23T11:24:12;3.23;;;2.00;;
18200;SDS011;9226;47.858;9.594;2023-03-23T11:26:38;5.60;;;1.90;;
18200;SDS011;9226;47.858;9.594;2023-03-23T11:29:12;2.73;;;2.07;;
18200;SDS011;9226;47.858;9.594;2023-03-23T11:31:44;3.90;;;1.67;;
18200;SDS011;9226;47.858;9.594;2023-03-23T11:34:16;3.37;;;1.77;;
18200;SDS011;9226;47.858;9.594;2023-03-23T11:37:01;3.30;;;2.00;;
18200;SDS011;9226;47.858;9.594;2023-03-23T11:39:31;5.83;;;1.90;;
18200;SDS011;9226;47.858;9.594;2023-03-23T11:41:59;3.17;;;1.83;;
18200;SDS011;9226;47.858;9.594;2023-03-23T11:44:32;3.20;;;1.93;;
18200;SDS011;9226;47.858;9.594;2023-03-23T11:47:01;6.20;;;2.20;;
18200;SDS011;9226;47.858;9.594;2023-03-23T11:52:44;3.40;;;1.93;;
18200;SDS011;9226;47.858;9.594;2023-03-23T11:58:10;2.93;;;2.20;;
18200;SDS011;9226;47.858;9.594;2023-03-23T12:00:40;3.17;;;2.13;;
18200;SDS011;9226;47.858;9.594;2023-03-23T12:04:24;6.77;;;1.90;;
18200;SDS011;9226;47.858;9.594;2023-03-23T12:06:34;6.63;;;2.10;;
18200;SDS011;9226;47.858;9.594;2023-03-23T12:20:20;3.33;;;2.10;;
18200;SDS011;9226;47.858;9.594;2023-03-23T12:28:43;4.27;;;1.90;;
18200;SDS011;9226;47.858;9.594;2023-03-23T12:34:30;9.27;;;2.07;;
18200;SDS011;9226;47.858;9.594;2023-03-23T12:48:32;3.30;;;1.80;;
18200;SDS011;9226;47.858;9.594;2023-03-23T12:53:57;3.00;;;1.90;;
18200;SDS011;9226;47.858;9.594;2023-03-23T12:56:33;3.60;;;1.90;;
18200;SDS011;9226;47.858;9.594;2023-03-23T12:59:46;5.97;;;2.00;;
18200;SDS011;9226;47.858;9.594;2023-03-23T13:01:59;9.70;;;2.10;;
18200;SDS011;9226;47.858;9.594;2023-03-23T13:04:35;3.80;;;2.40;;
18200;SDS011;9226;47.858;9.594;2023-03-23T13:07:06;4.10;;;1.80;;
18200;SDS011;9226;47.858;9.594;2023-03-23T13:09:46;2.77;;;1.77;;
18200;SDS011;9226;47.858;9.594;2023-03-23T13:12:21;4.00;;;1.90;;
18200;SDS011;9226;47.858;9.594;2023-03-23T13:18:04;4.30;;;1.77;;
18200;SDS011;9226;47.858;9.594;2023-03-23T13:26:08;3.17;;;1.90;;
18200;SDS011;9226;47.858;9.594;2023-03-23T13:28:48;4.03;;;2.00;;
18200;SDS011;9226;47.858;9.594;2023-03-23T13:34:02;3.70;;;1.80;;
18200;SDS011;9226;47.858;9.594;2023-03-23T13:36:37;4.47;;;1.87;;
18200;SDS011;9226;47.858;9.594;2023-03-23T13:39:06;3.30;;;1.80;;
18200;SDS011;9226;47.858;9.594;2023-03-23T13:41:46;3.10;;;1.67;;
18200;SDS011;9226;47.858;9.594;2023-03-23T13:44:17;5.70;;;1.90;;
18200;SDS011;9226;47.858;9.594;2023-03-23T13:47:14;5.87;;;2.00;;
18200;SDS011;9226;47.858;9.594;2023-03-23T13:49:54;2.27;;;1.70;;
18200;SDS011;9226;47.858;9.594;2023-03-23T13:57:54;2.77;;;1.90;;
18200;SDS011;9226;47.858;9.594;2023-03-23T14:02:57;5.97;;;1.60;;
18200;SDS011;9226;47.858;9.594;2023-03-23T14:12:59;3.03;;;1.87;;
18200;SDS011;9226;47.858;9.594;2023-03-23T14:15:30;4.87;;;1.83;;
18200;SDS011;9226;47.858;9.594;2023-03-23T14:18:03;3.07;;;1.80;;
18200;SDS011;9226;47.858;9.594;2023-03-23T14:20:30;7.53;;;1.97;;
18200;SDS011;9226;47.858;9.594;2023-03-23T14:22:59;3.83;;;2.10;;
18200;SDS011;9226;47.858;9.594;2023-03-23T14:25:29;3.20;;;2.00;;
18200;SDS011;9226;47.858;9.594;2023-03-23T14:27:57;4.43;;;2.10;;
18200;SDS011;9226;47.858;9.594;2023-03-23T14:30:24;3.40;;;2.10;;
18200;SDS011;9226;47.858;9.594;2023-03-23T14:32:52;4.00;;;1.93;;
18200;SDS011;9226;47.858;9.594;2023-03-23T14:35:25;2.90;;;2.00;;
18200;SDS011;9226;47.858;9.594;2023-03-23T14:37:55;2.90;;;1.77;;
18200;SDS011;9226;47.858;9.594;2023-03-23T14:40:22;2.47;;;1.80;;
18200;SDS011;9226;47.858;9.594;2023-03-23T14:42:48;5.17;;;2.20;;
18200;SDS011;9226;47.858;9.594;2023-03-23T14:45:17;6.40;;;2.07;;
18200;SDS011;9226;47.858;9.594;2023-03-23T14:47:45;4.07;;;2.23;;
18200;SDS011;9226;47.858;9.594;2023-03-23T14:53:35;3.50;;;1.80;;
18200;SDS011;9226;47.858;9.594;2023-03-23T14:56:11;3.03;;;2.00;;
18200;SDS011;9226;47.858;9.594;2023-03-23T14:58:43;5.57;;;2.43;;
18200;SDS011;9226;47.858;9.594;2023-03-23T15:01:13;3.03;;;1.77;;
18200;SDS011;9226;47.858;9.594;2023-03-23T15:03:44;3.57;;;1.83;;
18200;SDS011;9226;47.858;9.594;2023-03-23T15:06:17;8.17;;;2.10;;
18200;SDS011;9226;47.858;9.594;2023-03-23T15:08:46;6.07;;;2.10;;
18200;SDS011;9226;47.858;9.594;2023-03-23T15:13:43;5.07;;;2.20;;
18200;SDS011;9226;47.858;9.594;2023-03-23T15:16:12;4.17;;;2.23;;
18200;SDS011;9226;47.858;9.594;2023-03-23T15:18:45;3.17;;;1.70;;
18200;SDS011;9226;47.858;9.594;2023-03-23T15:21:20;4.67;;;2.10;;
18200;SDS011;9226;47.858;9.594;2023-03-23T15:23:49;3.17;;;2.00;;
18200;SDS011;9226;47.858;9.594;2023-03-23T15:26:21;5.10;;;2.43;;
18200;SDS011;9226;47.858;9.594;2023-03-23T15:28:50;7.90;;;2.07;;
18200;SDS011;9226;47.858;9.594;2023-03-23T15:31:15;4.47;;;2.00;;
18200;SDS011;9226;47.858;9.594;2023-03-23T15:33:41;2.87;;;2.07;;
18200;SDS011;9226;47.858;9.594;2023-03-23T15:36:24;7.00;;;2.20;;
18200;SDS011;9226;47.858;9.594;2023-03-23T15:38:50;2.60;;;1.87;;
18200;SDS011;9226;47.858;9.594;2023-03-23T15:41:24;3.80;;;2.20;;
18200;SDS011;9226;47.858;9.594;2023-03-23T15:43:51;3.83;;;2.10;;
18200;SDS011;9226;47.858;9.594;2023-03-23T15:46:27;5.73;;;2.00;;
18200;SDS011;9226;47.858;9.594;2023-03-23T15:51:28;3.63;;;1.73;;
18200;SDS011;9226;47.858;9.594;2023-03-23T15:53:55;4.00;;;2.10;;
18200;SDS011;9226;47.858;9.594;2023-03-23T15:56:21;4.90;;;2.00;;
18200;SDS011;9226;47.858;9.594;2023-03-23T15:58:48;2.83;;;2.03;;
18200;SDS011;9226;47.858;9.594;2023-03-23T16:01:17;4.50;;;2.00;;
18200;SDS011;9226;47.858;9.594;2023-03-23T16:03:47;3.77;;;2.20;;
18200;SDS011;9226;47.858;9.594;2023-03-23T16:06:13;4.23;;;2.10;;
18200;SDS011;9226;47.858;9.594;2023-03-23T16:08:40;4.27;;;2.10;;
18200;SDS011;9226;47.858;9.594;2023-03-23T16:11:08;5.37;;;2.07;;
18200;SDS011;9226;47.858;9.594;2023-03-23T16:13:35;2.83;;;1.93;;
18200;SDS011;9226;47.858;9.594;2023-03-23T16:16:00;3.33;;;2.00;;
18200;SDS011;9226;47.858;9.594;2023-03-23T16:18:27;3.57;;;2.10;;
18200;SDS011;9226;47.858;9.594;2023-03-23T16:20:52;3.53;;;2.23;;
18200;SDS011;9226;47.858;9.594;2023-03-23T16:23:18;4.53;;;2.10;;
18200;SDS011;9226;47.858;9.594;2023-03-23T16:25:43;4.77;;;2.20;;
18200;SDS011;9226;47.858;9.594;2023-03-23T16:28:12;3.73;;;1.90;;
18200;SDS011;9226;47.858;9.594;2023-03-23T16:30:38;6.17;;;2.10;;
18200;SDS011;9226;47.858;9.594;2023-03-23T16:33:04;3.53;;;2.10;;
18200;SDS011;9226;47.858;9.594;2023-03-23T16:35:30;6.00;;;2.20;;
18200;SDS011;9226;47.858;9.594;2023-03-23T16:37:56;3.53;;;1.97;;
18200;SDS011;9226;47.858;9.594;2023-03-23T16:40:22;3.80;;;2.17;;
18200;SDS011;9226;47.858;9.594;2023-03-23T16:42:48;2.77;;;2.00;;
18200;SDS011;9226;47.858;9.594;2023-03-23T16:45:15;6.73;;;2.83;;
18200;SDS011;9226;47.858;9.594;2023-03-23T16:47:41;7.43;;;2.60;;
18200;SDS011;9226;47.858;9.594;2023-03-23T16:50:09;4.83;;;2.53;;
18200;SDS011;9226;47.858;9.594;2023-03-23T16:52:40;4.97;;;2.20;;
18200;SDS011;9226;47.858;9.594;2023-03-23T16:55:08;4.50;;;2.30;;
18200;SDS011;9226;47.858;9.594;2023-03-23T16:57:35;2.63;;;2.03;;
18200;SDS011;9226;47.858;9.594;2023-03-23T17:00:03;8.23;;;2.20;;